Time;durP1;ratioP1;P1;durP2;ratioP2;P2;SDS_P1;SDS_P2;PMS_P1;PMS_P2;Temp;Humidity;BMP_temperature;BMP_pressure;BME280_temperature;BME280_humidity;BME280_pressure;Samples;Min_cycle;Max_cycle;Signal;HPM_P1;HPM_P2
2022/08/23 00:02:12;;;;;;;10.68;2.80;;;17.60;99.90;;;;;;4992470;28;20450;-82
2022/08/23 00:04:58;;;;;;;8.00;3.08;;;17.50;99.90;;;;;;4978030;28;20053;-81
2022/08/23 00:07:44;;;;;;;9.95;2.97;;;17.50;99.90;;;;;;4992510;28;20054;-83
2022/08/23 00:10:31;;;;;;;10.82;3.08;;;17.50;99.90;;;;;;4992742;28;20057;-82
2022/08/23 00:13:18;;;;;;;11.23;3.63;;;17.50;99.90;;;;;;4974310;28;20109;-81
2022/08/23 00:16:04;;;;;;;8.65;2.67;;;17.50;99.90;;;;;;4992854;28;20109;-81
2022/08/23 00:18:50;;;;;;;16.10;3.95;;;17.50;99.90;;;;;;4975392;28;20541;-81
2022/08/23 00:21:37;;;;;;;10.00;3.08;;;17.50;99.90;;;;;;4992163;28;20057;-81
2022/08/23 00:24:24;;;;;;;12.85;3.92;;;17.50;99.90;;;;;;4991890;28;20058;-82
2022/08/23 00:27:16;;;;;;;10.75;2.83;;;17.50;99.90;;;;;;4991830;28;20506;-80
2022/08/23 00:30:06;;;;;;;11.52;3.60;;;17.50;99.90;;;;;;4977940;28;20058;-81
2022/08/23 00:32:52;;;;;;;9.95;3.75;;;17.50;99.90;;;;;;4991519;28;20101;-81
2022/08/23 00:35:38;;;;;;;12.05;3.67;;;17.50;99.90;;;;;;4991764;28;20042;-81
2022/08/23 00:38:24;;;;;;;11.57;3.65;;;17.50;99.90;;;;;;4990800;28;20084;-82
2022/08/23 00:41:11;;;;;;;10.10;3.80;;;17.50;99.90;;;;;;4991981;28;20140;-83
2022/08/23 00:47:49;;;;;;;8.18;3.08;;;17.50;99.90;;;;;;4991296;28;20076;-82
2022/08/23 00:50:20;;;;;;;9.82;2.97;;;17.40;99.90;;;;;;4988447;28;20089;-82
2022/08/23 00:53:15;;;;;;;9.80;3.47;;;17.50;99.90;;;;;;4974657;28;20161;-83
2022/08/23 00:56:06;;;;;;;10.68;3.88;;;17.40;99.90;;;;;;4973870;28;20086;-82
2022/08/23 00:58:52;;;;;;;10.05;3.50;;;17.40;99.90;;;;;;4974526;28;20058;-83
2022/08/23 01:01:38;;;;;;;8.80;3.30;;;17.40;99.90;;;;;;4990579;28;20038;-83
2022/08/23 01:04:29;;;;;;;16.15;4.55;;;17.40;99.90;;;;;;4974026;28;20100;-82
2022/08/23 01:07:30;;;;;;;7.80;3.15;;;17.40;99.90;;;;;;4991678;28;20042;-83
2022/08/23 01:10:31;;;;;;;9.93;3.15;;;17.50;99.90;;;;;;4991685;28;20058;-84
2022/08/23 01:13:23;;;;;;;9.65;3.67;;;17.40;99.90;;;;;;4974322;28;20066;-82
2022/08/23 01:16:15;;;;;;;9.18;3.75;;;17.40;99.90;;;;;;4993099;28;20049;-82
2022/08/23 01:19:10;;;;;;;6.18;2.92;;;17.40;99.90;;;;;;4990742;28;20505;-82
2022/08/23 01:22:12;;;;;;;8.65;3.55;;;17.40;99.90;;;;;;5004779;28;20103;-82
2022/08/23 01:24:59;;;;;;;12.10;3.67;;;17.30;99.90;;;;;;4976669;28;20096;-82
2022/08/23 01:27:47;;;;;;;8.30;3.30;;;17.30;99.90;;;;;;4972415;28;20050;-84
2022/08/23 01:30:34;;;;;;;11.05;4.32;;;17.40;99.90;;;;;;4989593;28;20049;-82
2022/08/23 01:33:20;;;;;;;9.95;4.30;;;17.30;99.90;;;;;;4973156;28;20054;-82
2022/08/23 01:36:10;;;;;;;11.98;3.92;;;17.30;99.90;;;;;;4973015;28;20054;-84
2022/08/23 01:38:56;;;;;;;8.73;4.03;;;17.30;99.90;;;;;;5006791;28;20413;-84
2022/08/23 01:41:43;;;;;;;16.80;5.53;;;17.30;99.90;;;;;;4991346;28;20417;-85
2022/08/23 01:44:29;;;;;;;13.68;5.40;;;17.30;99.90;;;;;;4991411;28;20090;-83
2022/08/23 01:47:16;;;;;;;10.43;4.85;;;17.40;99.90;;;;;;5004211;28;20053;-84
2022/08/23 01:50:03;;;;;;;11.38;5.18;;;17.40;99.90;;;;;;5006013;28;20043;-82
2022/08/23 01:52:49;;;;;;;12.30;5.47;;;17.30;99.90;;;;;;4976833;28;20046;-82
2022/08/23 01:55:36;;;;;;;12.15;4.78;;;17.30;99.90;;;;;;4991873;28;20055;-81
2022/08/23 01:58:22;;;;;;;17.17;5.55;;;17.30;99.90;;;;;;4991591;28;20050;-82
2022/08/23 02:01:08;;;;;;;14.10;5.88;;;17.30;99.90;;;;;;4973809;28;20114;-82
2022/08/23 02:04:00;;;;;;;10.52;4.05;;;17.30;99.90;;;;;;4990860;28;20137;-82
2022/08/23 02:06:47;;;;;;;12.55;4.88;;;17.30;99.90;;;;;;4991213;28;20451;-80
2022/08/23 02:09:33;;;;;;;10.43;4.78;;;17.20;99.90;;;;;;4972177;28;20054;-82
2022/08/23 02:12:19;;;;;;;9.60;4.93;;;17.20;99.90;;;;;;4972648;28;20051;-83
2022/08/23 02:15:06;;;;;;;10.52;3.97;;;17.20;99.90;;;;;;4989857;28;20608;-82
2022/08/23 02:17:53;;;;;;;11.60;3.85;;;17.20;99.90;;;;;;4973149;28;20050;-82
2022/08/23 02:20:50;;;;;;;7.65;4.28;;;17.10;99.90;;;;;;4991826;28;20101;-81
2022/08/23 02:23:37;;;;;;;9.93;4.40;;;17.10;99.90;;;;;;4989744;28;20058;-83
2022/08/23 02:26:23;;;;;;;12.85;5.90;;;17.10;99.90;;;;;;4996385;28;20042;-82
2022/08/23 02:29:09;;;;;;;15.25;5.03;;;17.00;99.90;;;;;;5008130;28;20050;-80
2022/08/23 02:32:00;;;;;;;8.65;4.95;;;16.90;99.90;;;;;;4995046;28;20438;-82
2022/08/23 02:34:46;;;;;;;9.73;5.07;;;16.90;99.90;;;;;;4995498;28;20133;-82
2022/08/23 02:37:33;;;;;;;12.55;4.95;;;16.90;99.90;;;;;;4993528;28;20144;-82
2022/08/23 02:40:21;;;;;;;7.80;3.60;;;16.90;99.90;;;;;;4975817;28;20169;-81
2022/08/23 02:43:07;;;;;;;10.10;5.78;;;16.90;99.90;;;;;;5006035;28;20083;-82
2022/08/23 02:45:53;;;;;;;11.75;5.28;;;16.80;99.90;;;;;;5009889;28;20114;-82
2022/08/23 02:48:39;;;;;;;13.63;5.78;;;16.80;99.90;;;;;;4994189;28;20043;-82
2022/08/23 02:51:26;;;;;;;11.23;4.93;;;16.80;99.90;;;;;;5007042;28;20050;-83
2022/08/23 02:54:12;;;;;;;16.85;7.07;;;16.80;99.90;;;;;;4989530;28;20050;-82
2022/08/23 02:56:59;;;;;;;13.90;6.68;;;16.70;99.90;;;;;;4994202;28;20406;-84
2022/08/23 02:59:45;;;;;;;12.00;4.40;;;16.70;99.90;;;;;;4993959;28;20460;-83
2022/08/23 03:02:31;;;;;;;14.52;6.38;;;16.70;99.90;;;;;;4976000;28;20062;-82
2022/08/23 03:05:17;;;;;;;12.18;5.07;;;16.70;99.90;;;;;;5006999;28;20379;-85
2022/08/23 03:08:04;;;;;;;11.10;6.45;;;16.70;99.90;;;;;;4993907;28;20417;-83
2022/08/23 03:10:51;;;;;;;9.75;5.40;;;16.70;99.90;;;;;;4977076;28;20050;-84
2022/08/23 03:13:39;;;;;;;13.50;5.72;;;16.70;99.90;;;;;;4992908;28;20052;-82
2022/08/23 03:16:29;;;;;;;14.38;5.57;;;16.60;99.90;;;;;;4994034;28;20084;-84
2022/08/23 03:19:15;;;;;;;13.15;7.30;;;16.60;99.90;;;;;;4988595;28;20100;-83
2022/08/23 03:22:01;;;;;;;10.82;6.75;;;16.50;99.90;;;;;;4994383;28;20046;-81
2022/08/23 03:24:47;;;;;;;15.55;6.60;;;16.50;99.90;;;;;;4993247;28;20062;-84
2022/08/23 03:27:34;;;;;;;9.60;6.10;;;16.50;99.90;;;;;;4975337;28;20054;-85
2022/08/23 03:30:23;;;;;;;17.85;8.07;;;16.50;99.90;;;;;;5005528;28;20113;-84
2022/08/23 03:33:09;;;;;;;12.63;7.88;;;16.50;99.90;;;;;;5007836;28;20050;-84
2022/08/23 03:36:00;;;;;;;17.00;7.97;;;16.50;99.90;;;;;;4975309;28;20050;-84
2022/08/23 03:38:46;;;;;;;11.38;6.45;;;16.40;99.90;;;;;;4980696;28;20145;-81
2022/08/23 03:41:32;;;;;;;14.10;8.43;;;16.40;99.90;;;;;;5006558;28;20177;-85
2022/08/23 03:44:18;;;;;;;18.00;9.68;;;16.40;99.90;;;;;;4992307;28;20141;-84
2022/08/23 03:47:05;;;;;;;16.35;8.70;;;16.40;99.90;;;;;;4992174;28;20042;-85
2022/08/23 03:49:51;;;;;;;13.70;6.80;;;16.40;99.90;;;;;;4988607;28;20050;-82
2022/08/23 03:52:37;;;;;;;11.10;6.97;;;16.40;99.90;;;;;;5009157;28;20054;-83
2022/08/23 03:55:23;;;;;;;10.98;8.13;;;16.30;99.90;;;;;;4995101;28;20078;-84
2022/08/23 03:58:11;;;;;;;15.00;7.90;;;16.30;99.90;;;;;;4976317;28;20050;-85
2022/08/23 04:00:57;;;;;;;11.73;6.00;;;16.30;99.90;;;;;;4991367;28;20061;-85
2022/08/23 04:03:43;;;;;;;15.68;9.32;;;16.30;99.90;;;;;;4992606;28;20173;-86
2022/08/23 04:06:30;;;;;;;16.48;8.27;;;16.30;99.90;;;;;;4976636;28;20133;-85
2022/08/23 04:09:16;;;;;;;17.63;10.10;;;16.30;99.90;;;;;;4973687;28;20058;-86
2022/08/23 04:12:03;;;;;;;22.00;11.00;;;16.20;99.90;;;;;;4961065;28;20057;-83
2022/08/23 04:14:49;;;;;;;14.45;9.20;;;16.20;99.90;;;;;;4992082;28;20061;-84
2022/08/23 04:17:35;;;;;;;16.70;11.60;;;16.20;99.90;;;;;;4994277;28;20129;-86
2022/08/23 04:20:21;;;;;;;20.25;12.20;;;16.20;99.90;;;;;;4991957;28;20058;-86
2022/08/23 04:23:07;;;;;;;18.23;11.23;;;16.20;99.90;;;;;;4974913;28;20394;-87
2022/08/23 04:25:54;;;;;;;16.75;9.68;;;16.30;99.90;;;;;;4992090;28;20047;-86
2022/08/23 04:28:40;;;;;;;20.13;11.60;;;16.30;99.90;;;;;;4960630;28;20051;-86
2022/08/23 04:31:29;;;;;;;19.15;13.38;;;16.30;99.90;;;;;;4992008;28;20054;-85
2022/08/23 04:34:15;;;;;;;16.08;9.63;;;16.30;99.90;;;;;;4990897;28;20584;-82
2022/08/23 04:37:01;;;;;;;17.95;11.27;;;16.30;99.90;;;;;;4993147;28;20093;-85
2022/08/23 04:42:52;;;;;;;19.58;13.75;;;16.30;99.90;;;;;;4991843;28;20112;-82
2022/08/23 04:45:39;;;;;;;19.95;11.85;;;16.30;99.90;;;;;;5006465;28;20132;-82
2022/08/23 04:48:26;;;;;;;24.25;12.23;;;16.30;99.90;;;;;;4974860;28;20048;-85
2022/08/23 04:51:16;;;;;;;18.45;12.02;;;16.30;99.90;;;;;;4974477;28;20072;-84
2022/08/23 04:54:03;;;;;;;15.50;10.63;;;16.30;99.90;;;;;;4992198;28;20112;-86
2022/08/23 04:56:49;;;;;;;17.38;10.57;;;16.30;99.90;;;;;;4976136;28;20057;-81
2022/08/23 04:59:35;;;;;;;19.92;11.35;;;16.30;99.90;;;;;;4990064;28;20050;-84
2022/08/23 05:02:21;;;;;;;17.15;10.73;;;16.30;99.90;;;;;;4972776;28;20590;-84
2022/08/23 05:05:09;;;;;;;15.77;11.35;;;16.30;99.90;;;;;;5007111;28;20038;-86
2022/08/23 05:07:55;;;;;;;17.20;10.65;;;16.30;99.90;;;;;;4992095;28;20057;-83
2022/08/23 05:10:41;;;;;;;21.58;13.73;;;16.30;99.90;;;;;;4972039;28;20065;-82
2022/08/23 05:13:28;;;;;;;22.83;15.02;;;16.40;99.90;;;;;;4973253;28;20047;-84
2022/08/23 05:16:16;;;;;;;22.63;16.38;;;16.40;99.90;;;;;;4972788;28;20779;-83
2022/08/23 05:19:02;;;;;;;19.92;14.10;;;16.50;99.90;;;;;;4971374;28;20145;-82
2022/08/23 05:21:48;;;;;;;22.92;15.30;;;16.60;99.90;;;;;;4971889;28;20050;-84
2022/08/23 05:24:35;;;;;;;26.88;17.48;;;16.70;99.90;;;;;;4954883;28;20051;-83
2022/08/23 05:27:21;;;;;;;21.85;16.00;;;16.80;99.90;;;;;;4940074;28;20050;-82
2022/08/23 05:30:07;;;;;;;28.15;18.25;;;16.90;99.90;;;;;;4955442;28;20067;-83
2022/08/23 05:32:53;;;;;;;25.67;16.45;;;17.00;99.90;;;;;;4954232;28;20053;-84
2022/08/23 05:35:39;;;;;;;22.23;16.98;;;17.00;99.90;;;;;;4972104;28;20047;-84
2022/08/23 05:38:26;;;;;;;28.55;16.67;;;17.10;99.90;;;;;;4955414;28;20065;-85
2022/08/23 05:41:14;;;;;;;24.10;16.88;;;17.20;99.90;;;;;;4954960;28;20055;-83
2022/08/23 05:44:00;;;;;;;25.95;15.95;;;17.30;99.90;;;;;;4971651;28;20060;-82
2022/08/23 05:46:46;;;;;;;25.35;15.88;;;17.40;99.90;;;;;;4955174;28;20055;-83
2022/08/23 05:49:35;;;;;;;20.48;14.32;;;17.50;99.90;;;;;;4955514;28;20061;-83
2022/08/23 05:52:21;;;;;;;24.23;16.23;;;17.50;99.90;;;;;;4971167;28;20094;-85
2022/08/23 05:55:08;;;;;;;22.30;15.20;;;17.60;99.90;;;;;;4972052;28;20051;-84
2022/08/23 05:57:54;;;;;;;25.75;16.50;;;17.70;99.90;;;;;;4975709;28;20050;-82
2022/08/23 06:00:40;;;;;;;19.17;14.27;;;17.70;99.90;;;;;;4958834;28;20058;-83
2022/08/23 06:03:26;;;;;;;23.17;15.05;;;17.70;99.90;;;;;;4958233;28;20506;-81
2022/08/23 06:06:14;;;;;;;21.00;14.43;;;17.60;99.90;;;;;;4975752;28;20050;-83
2022/08/23 06:09:06;;;;;;;19.38;15.68;;;17.60;99.90;;;;;;4958841;28;20051;-81
2022/08/23 06:11:52;;;;;;;24.13;17.02;;;17.70;99.90;;;;;;4958739;28;20054;-81
2022/08/23 06:14:39;;;;;;;23.80;15.57;;;17.80;99.90;;;;;;4976639;28;20045;-81
2022/08/23 06:17:26;;;;;;;21.15;13.00;;;18.00;99.90;;;;;;4958990;28;20093;-84
2022/08/23 06:20:14;;;;;;;20.13;15.82;;;18.10;99.90;;;;;;4976369;28;20050;-88
2022/08/23 06:23:00;;;;;;;21.73;15.27;;;18.30;99.90;;;;;;4976984;28;20038;-84
2022/08/23 06:25:46;;;;;;;22.98;17.17;;;18.40;99.90;;;;;;4961154;28;20057;-84
2022/08/23 06:28:33;;;;;;;21.50;14.85;;;18.60;99.90;;;;;;4960445;28;20113;-85
2022/08/23 06:34:35;;;;;;;21.35;15.60;;;18.90;99.90;;;;;;4989319;28;20094;-87
2022/08/23 06:37:21;;;;;;;20.73;13.73;;;19.10;99.90;;;;;;5009567;28;20054;-82
2022/08/23 06:40:08;;;;;;;20.67;13.35;;;19.30;99.90;;;;;;4996823;28;20089;-85
2022/08/23 06:42:54;;;;;;;17.02;11.65;;;19.50;99.90;;;;;;4995844;28;20054;-87
2022/08/23 06:45:41;;;;;;;16.00;11.88;;;19.70;99.90;;;;;;5006512;28;20046;-86
2022/08/23 06:48:28;;;;;;;18.20;11.52;;;19.80;99.90;;;;;;4977885;28;20402;-87
2022/08/23 06:51:27;;;;;;;16.70;11.38;;;19.90;99.90;;;;;;4996267;28;20062;-87
2022/08/23 06:54:15;;;;;;;15.27;10.23;;;20.10;99.90;;;;;;4995070;28;20054;-83
2022/08/23 06:57:02;;;;;;;16.77;10.45;;;20.30;99.90;;;;;;4983940;28;20130;-88
2022/08/23 06:59:49;;;;;;;16.75;9.27;;;20.50;99.90;;;;;;4976300;28;20506;-81
2022/08/23 07:02:36;;;;;;;16.05;10.23;;;20.50;99.90;;;;;;4972507;28;20138;-89
2022/08/23 07:05:22;;;;;;;13.30;9.38;;;20.70;99.90;;;;;;4988288;28;20129;-85
2022/08/23 07:08:08;;;;;;;14.43;8.60;;;20.90;99.90;;;;;;4994718;28;20054;-88
2022/08/23 07:10:57;;;;;;;12.98;9.13;;;21.10;99.90;;;;;;4980322;28;20490;-86
2022/08/23 07:13:43;;;;;;;11.27;7.90;;;21.20;99.90;;;;;;5000018;28;20057;-85
2022/08/23 07:16:36;;;;;;;11.93;8.20;;;21.30;99.90;;;;;;4996200;28;20110;-88
2022/08/23 07:19:26;;;;;;;13.40;8.00;;;21.50;99.90;;;;;;4980685;28;20062;-87
2022/08/23 07:22:12;;;;;;;13.18;8.43;;;21.70;99.90;;;;;;4978091;28;20065;-87
2022/08/23 07:24:58;;;;;;;16.10;8.00;;;21.80;99.90;;;;;;4993941;28;20054;-85
2022/08/23 07:27:45;;;;;;;14.60;7.63;;;22.00;99.90;;;;;;4993460;28;20046;-83
2022/08/23 07:30:31;;;;;;;11.93;7.20;;;22.10;99.90;;;;;;4992713;28;20093;-87
2022/08/23 07:33:17;;;;;;;12.35;7.70;;;22.30;99.90;;;;;;4993363;28;20046;-89
2022/08/23 07:36:04;;;;;;;14.35;7.82;;;22.50;99.90;;;;;;4975810;28;20100;-83
2022/08/23 07:38:52;;;;;;;9.66;7.46;;;22.70;99.90;;;;;;4947764;28;1262881;-82
2022/08/23 07:41:38;;;;;;;11.57;6.93;;;22.80;99.90;;;;;;4963600;28;20108;-82
2022/08/23 07:44:24;;;;;;;13.00;8.23;;;23.00;99.90;;;;;;4957642;28;20057;-83
2022/08/23 07:47:11;;;;;;;13.60;7.82;;;23.30;99.90;;;;;;4957503;28;20138;-83
2022/08/23 07:49:57;;;;;;;10.32;8.00;;;23.40;99.90;;;;;;4968012;28;20142;-83
2022/08/23 07:52:43;;;;;;;15.85;8.00;;;23.60;99.90;;;;;;4973190;28;20047;-83
2022/08/23 07:55:30;;;;;;;11.65;6.70;;;23.80;99.90;;;;;;4974306;28;20415;-87
2022/08/23 07:58:16;;;;;;;16.13;7.70;;;24.00;99.90;;;;;;4972630;28;20065;-80
2022/08/23 08:01:18;;;;;;;13.05;6.95;;;24.00;99.90;;;;;;4976278;28;20057;-88
2022/08/23 08:04:05;;;;;;;12.60;6.28;;;24.10;99.90;;;;;;4959152;28;20059;-87
2022/08/23 08:06:51;;;;;;;11.38;6.97;;;24.20;99.90;;;;;;4944248;28;20059;-88
2022/08/23 08:09:38;;;;;;;9.50;7.57;;;24.40;99.90;;;;;;4957301;28;20060;-82
2022/08/23 08:12:27;;;;;;;12.18;6.70;;;24.50;99.90;;;;;;4974426;28;20051;-82
2022/08/23 08:15:13;;;;;;;12.95;6.25;;;24.50;99.90;;;;;;4973924;28;20077;-82
2022/08/23 08:17:59;;;;;;;11.73;5.63;;;24.70;99.90;;;;;;4957307;28;20123;-83
2022/08/23 08:20:46;;;;;;;9.98;6.80;;;24.90;99.90;;;;;;4973015;28;20042;-84
2022/08/23 08:23:32;;;;;;;11.15;5.72;;;24.90;99.90;;;;;;4957021;28;20061;-84
2022/08/23 08:26:19;;;;;;;11.52;6.00;;;25.00;99.80;;;;;;4958479;28;20062;-83
2022/08/23 08:29:06;;;;;;;9.40;5.97;;;25.20;99.60;;;;;;4977651;28;20066;-87
2022/08/23 08:31:52;;;;;;;12.10;6.32;;;25.40;99.50;;;;;;4979428;28;20114;-87
2022/08/23 08:34:39;;;;;;;10.73;5.93;;;25.50;99.40;;;;;;4981284;28;20214;-85
2022/08/23 08:37:25;;;;;;;8.75;5.40;;;25.50;99.00;;;;;;4976538;28;20078;-86
2022/08/23 08:40:14;;;;;;;8.30;5.78;;;25.60;99.10;;;;;;4976197;28;20217;-86
2022/08/23 08:43:01;;;;;;;7.78;4.95;;;25.70;99.00;;;;;;4976712;28;20062;-84
2022/08/23 08:46:12;;;;;;;9.40;5.65;;;25.90;99.10;;;;;;4961591;28;20054;-87
2022/08/23 08:49:03;;;;;;;10.52;5.40;;;25.80;98.90;;;;;;4974844;28;20111;-89
2022/08/23 08:51:56;;;;;;;11.13;6.15;;;25.90;98.90;;;;;;4977339;28;20046;-86
2022/08/23 08:54:46;;;;;;;11.38;6.28;;;26.10;98.70;;;;;;4978290;28;20061;-87
2022/08/23 08:57:45;;;;;;;9.07;6.32;;;26.20;98.70;;;;;;4957876;28;20492;-87
2022/08/23 09:00:36;;;;;;;10.13;6.68;;;26.40;97.80;;;;;;4974309;28;20090;-87
2022/08/23 09:03:23;;;;;;;13.45;5.93;;;26.40;97.60;;;;;;4974395;28;20051;-87
2022/08/23 09:06:26;;;;;;;8.38;4.65;;;26.50;97.50;;;;;;4957481;28;20054;-88
2022/08/23 09:09:34;;;;;;;9.85;4.95;;;26.70;97.60;;;;;;4972950;28;20487;-85
2022/08/23 09:12:48;;;;;;;10.52;4.70;;;27.10;97.60;;;;;;4973580;28;20499;-84
2022/08/23 09:15:51;;;;;;;8.07;4.45;;;27.20;96.50;;;;;;4975573;28;20141;-86
2022/08/23 09:18:38;;;;;;;8.85;4.25;;;27.30;96.80;;;;;;4956312;28;20055;-85
2022/08/23 09:21:24;;;;;;;6.10;3.65;;;27.40;96.20;;;;;;4973946;28;20065;-86
2022/08/23 09:24:10;;;;;;;7.20;3.85;;;27.40;95.80;;;;;;4955652;28;20051;-87
2022/08/23 09:26:57;;;;;;;7.88;4.00;;;27.40;95.20;;;;;;4972977;28;20090;-81
2022/08/23 09:29:56;;;;;;;10.55;4.07;;;27.40;95.50;;;;;;4972937;28;20042;-86
2022/08/23 09:32:47;;;;;;;6.90;4.05;;;27.40;94.80;;;;;;4973427;28;20197;-86
2022/08/23 09:35:33;;;;;;;12.55;3.80;;;27.60;95.10;;;;;;4972318;28;20047;-83
2022/08/23 09:38:19;;;;;;;8.52;4.40;;;27.80;95.30;;;;;;4972678;28;20038;-86
2022/08/23 09:41:18;;;;;;;10.95;3.03;;;27.90;94.70;;;;;;4983795;28;20076;-86
2022/08/23 09:44:08;;;;;;;8.65;3.30;;;28.10;94.60;;;;;;4974260;28;20407;-87
2022/08/23 09:47:11;;;;;;;6.43;3.10;;;28.30;94.70;;;;;;4972430;28;20126;-86
2022/08/23 09:50:16;;;;;;;8.32;3.25;;;28.60;94.00;;;;;;4972093;28;20047;-84
2022/08/23 09:53:09;;;;;;;6.63;3.45;;;28.90;93.10;;;;;;4984662;28;20077;-88
2022/08/23 09:55:57;;;;;;;8.38;2.75;;;29.30;92.80;;;;;;4973084;28;20047;-85
2022/08/23 09:58:49;;;;;;;12.30;4.85;;;29.60;93.10;;;;;;4973221;28;20057;-85
2022/08/23 10:01:36;;;;;;;6.60;2.78;;;29.90;92.60;;;;;;4971716;28;20046;-88
2022/08/23 10:04:28;;;;;;;7.53;3.33;;;30.20;92.10;;;;;;4971370;28;20054;-85
2022/08/23 10:07:27;;;;;;;6.85;2.90;;;30.20;90.70;;;;;;4985576;28;20130;-85
2022/08/23 10:10:45;;;;;;;10.15;2.80;;;30.20;90.60;;;;;;4972941;28;20129;-87
2022/08/23 10:13:31;;;;;;;9.65;2.78;;;30.30;88.90;;;;;;4974484;28;20861;-86
2022/08/23 10:16:52;;;;;;;8.25;2.78;;;30.30;89.30;;;;;;4974040;28;20051;-84
2022/08/23 10:19:47;;;;;;;7.00;3.00;;;30.20;87.40;;;;;;4962118;28;20590;-85
2022/08/23 10:22:40;;;;;;;7.05;2.97;;;30.10;88.90;;;;;;4971634;28;20146;-84
2022/08/23 10:25:37;;;;;;;10.90;2.42;;;30.30;89.20;;;;;;4971456;28;20050;-84
2022/08/23 10:32:00;;;;;;;6.30;2.28;;;30.50;90.10;;;;;;4972638;28;20054;-85
2022/08/23 10:35:05;;;;;;;7.90;2.40;;;30.70;87.90;;;;;;4972109;28;20051;-85
2022/08/23 10:38:05;;;;;;;9.77;2.53;;;30.70;86.50;;;;;;4974557;28;20043;-86
2022/08/23 10:40:57;;;;;;;6.38;2.65;;;30.80;85.50;;;;;;4958848;28;20086;-88
2022/08/23 10:43:49;;;;;;;8.05;2.75;;;31.00;85.90;;;;;;4975269;28;20051;-86
2022/08/23 10:46:45;;;;;;;5.30;2.83;;;31.40;83.90;;;;;;4945568;28;20050;-84
2022/08/23 10:49:36;;;;;;;5.55;2.63;;;31.50;82.70;;;;;;4964331;28;20082;-85
2022/08/23 10:52:35;;;;;;;5.88;3.13;;;31.50;81.40;;;;;;4962666;28;20058;-85
2022/08/23 10:55:35;;;;;;;6.88;4.20;;;31.60;83.40;;;;;;4977485;28;20503;-89
2022/08/23 10:58:24;;;;;;;6.25;3.33;;;31.40;81.80;;;;;;4975911;28;20055;-87
2022/08/23 11:01:17;;;;;;;8.90;3.40;;;31.70;83.80;;;;;;4976319;28;20134;-87
2022/08/23 11:04:16;;;;;;;8.13;2.70;;;31.80;82.90;;;;;;4975563;28;20509;-86
2022/08/23 11:07:17;;;;;;;8.68;3.05;;;31.70;81.50;;;;;;4976560;28;20055;-87
2022/08/23 11:10:41;;;;;;;7.72;2.58;;;31.70;79.70;;;;;;4957630;28;20118;-86
2022/08/23 11:13:30;;;;;;;7.90;3.03;;;32.10;80.50;;;;;;4975887;28;20427;-87
2022/08/23 11:16:28;;;;;;;8.52;3.00;;;32.40;80.00;;;;;;4958086;28;20507;-85
2022/08/23 11:19:51;;;;;;;7.40;2.85;;;32.50;79.00;;;;;;4975005;28;20137;-83
2022/08/23 11:22:55;;;;;;;7.00;2.40;;;32.80;78.90;;;;;;4958243;28;20114;-87
2022/08/23 11:25:43;;;;;;;5.63;2.92;;;32.70;77.80;;;;;;4961409;28;20059;-85
2022/08/23 11:28:38;;;;;;;7.07;2.22;;;32.40;79.00;;;;;;4975913;28;20054;-86
2022/08/23 11:31:29;;;;;;;6.18;2.55;;;32.30;79.50;;;;;;4977202;28;20122;-87
2022/08/23 11:34:48;;;;;;;14.60;3.17;;;32.50;79.20;;;;;;4978753;28;20051;-83
2022/08/23 11:37:55;;;;;;;7.18;2.80;;;32.40;80.70;;;;;;4975025;28;20051;-84
2022/08/23 11:40:50;;;;;;;7.35;3.00;;;33.40;78.20;;;;;;4975474;28;20094;-86
2022/08/23 11:43:39;;;;;;;4.88;2.17;;;33.80;77.20;;;;;;4958720;28;20048;-85
2022/08/23 11:46:25;;;;;;;9.35;2.53;;;33.10;73.40;;;;;;4944997;28;20161;-83
2022/08/23 11:49:29;;;;;;;6.80;2.60;;;32.60;73.90;;;;;;4977053;28;20050;-86
2022/08/23 11:52:47;;;;;;;8.27;2.92;;;32.50;76.10;;;;;;4975860;28;20101;-86
2022/08/23 11:55:52;;;;;;;6.57;2.30;;;32.50;76.60;;;;;;4973941;28;20074;-85
2022/08/23 11:59:13;;;;;;;6.60;2.15;;;32.90;76.80;;;;;;4975591;28;20085;-84
2022/08/23 12:02:39;;;;;;;6.40;2.83;;;33.10;74.80;;;;;;4959449;28;20109;-85
2022/08/23 12:06:01;;;;;;;5.82;2.60;;;33.60;74.20;;;;;;4960899;28;20046;-85
2022/08/23 12:09:00;;;;;;;7.63;2.80;;;34.40;72.80;;;;;;4974116;28;20051;-85
2022/08/23 12:11:55;;;;;;;8.15;2.60;;;34.10;72.10;;;;;;4972559;28;20046;-86
2022/08/23 12:14:41;;;;;;;6.47;2.83;;;34.20;71.50;;;;;;4975617;28;20166;-85
2022/08/23 12:17:28;;;;;;;6.30;2.33;;;34.10;69.80;;;;;;4976455;28;20058;-86
2022/08/23 12:20:28;;;;;;;9.18;2.97;;;34.70;68.90;;;;;;4958091;28;20501;-83
2022/08/23 12:23:18;;;;;;;6.22;2.50;;;34.70;66.80;;;;;;4973854;28;20038;-84
2022/08/23 12:26:38;;;;;;;8.82;3.22;;;34.50;68.60;;;;;;4957279;28;20203;-84
2022/08/23 12:29:53;;;;;;;5.47;2.30;;;34.10;65.70;;;;;;4973284;28;20085;-84
2022/08/23 12:32:54;;;;;;;8.32;2.50;;;34.30;68.30;;;;;;4973906;28;20061;-85
2022/08/23 12:36:00;;;;;;;6.68;2.50;;;34.40;65.50;;;;;;4975738;28;20143;-83
2022/08/23 12:39:18;;;;;;;7.68;4.03;;;33.90;68.20;;;;;;4956441;28;20054;-81
2022/08/23 12:42:14;;;;;;;12.68;5.10;;;33.70;74.80;;;;;;4975363;28;20042;-85
2022/08/23 12:45:10;;;;;;;10.52;4.35;;;33.90;73.90;;;;;;4958798;28;20418;-85
2022/08/23 12:48:00;;;;;;;8.77;4.93;;;33.50;73.90;;;;;;4955542;28;20062;-87
2022/08/23 12:51:12;;;;;;;8.52;4.85;;;33.40;75.50;;;;;;4974296;28;20414;-84
2022/08/23 12:54:14;;;;;;;12.80;4.85;;;33.00;73.80;;;;;;4974645;28;20054;-84
2022/08/23 12:57:08;;;;;;;14.30;6.85;;;32.80;75.20;;;;;;4973836;28;20051;-84
2022/08/23 13:00:21;;;;;;;14.00;6.72;;;32.90;77.90;;;;;;4968094;28;20047;-83
2022/08/23 13:03:17;;;;;;;15.95;8.13;;;33.50;76.20;;;;;;4953849;28;20050;-84
2022/08/23 13:06:11;;;;;;;9.88;7.60;;;33.80;76.60;;;;;;4970053;28;20105;-86
2022/08/23 13:09:21;;;;;;;13.75;8.77;;;33.20;77.70;;;;;;4954579;28;20074;-82
2022/08/23 13:12:09;;;;;;;12.85;7.28;;;33.00;78.80;;;;;;4945411;28;20047;-83
2022/08/23 13:15:00;;;;;;;9.85;5.97;;;32.90;80.00;;;;;;4941386;28;20085;-83
2022/08/23 13:17:46;;;;;;;13.18;7.20;;;33.60;79.80;;;;;;4955730;28;20055;-84
2022/08/23 13:20:32;;;;;;;11.07;6.68;;;34.30;77.30;;;;;;4956409;28;20797;-83
2022/08/23 13:23:27;;;;;;;12.65;6.85;;;34.70;77.40;;;;;;4970227;28;20503;-86
2022/08/23 13:26:38;;;;;;;9.73;5.38;;;35.50;75.20;;;;;;4974386;28;20051;-89
2022/08/23 13:29:25;;;;;;;11.43;5.78;;;36.40;75.10;;;;;;4952793;28;20061;-86
2022/08/23 13:32:36;;;;;;;8.35;5.75;;;37.30;71.60;;;;;;4971369;28;20047;-84
2022/08/23 13:35:44;;;;;;;12.30;5.50;;;37.60;70.80;;;;;;4969196;28;20051;-80
2022/08/23 13:38:32;;;;;;;10.38;6.13;;;36.90;69.50;;;;;;4977927;28;20042;-88
2022/08/23 13:41:35;;;;;;;13.90;6.43;;;36.40;70.40;;;;;;4981625;28;20526;-82
2022/08/23 13:44:22;;;;;;;11.75;6.65;;;36.30;71.40;;;;;;4991595;28;20081;-81
2022/08/23 13:47:21;;;;;;;13.07;6.28;;;36.20;71.40;;;;;;4978131;28;20117;-84
2022/08/23 13:50:31;;;;;;;13.05;5.88;;;36.00;71.70;;;;;;4988618;28;20104;-88
2022/08/23 13:53:17;;;;;;;10.65;7.45;;;35.90;71.10;;;;;;4987953;28;20465;-83
2022/08/23 13:56:04;;;;;;;9.38;6.43;;;35.30;72.10;;;;;;4990683;28;20447;-83
2022/08/23 13:59:00;;;;;;;14.13;6.88;;;34.80;73.20;;;;;;4993016;28;20042;-85
2022/08/23 14:01:46;;;;;;;12.15;6.30;;;34.30;74.70;;;;;;4988293;28;20034;-83
2022/08/23 14:04:33;;;;;;;11.55;6.13;;;34.00;74.50;;;;;;4995027;28;20085;-83
2022/08/23 14:07:20;;;;;;;10.70;5.65;;;34.20;75.40;;;;;;4982748;28;20049;-84
2022/08/23 14:10:07;;;;;;;9.70;6.32;;;34.00;75.60;;;;;;4994510;28;20047;-83
2022/08/23 14:12:54;;;;;;;10.05;5.20;;;34.50;75.40;;;;;;4975221;28;20046;-82
2022/08/23 14:15:43;;;;;;;10.48;6.25;;;35.00;74.10;;;;;;4992197;28;20058;-82
2022/08/23 14:18:29;;;;;;;8.82;5.22;;;34.40;73.60;;;;;;4975498;28;20061;-84
2022/08/23 14:21:15;;;;;;;11.95;5.57;;;33.60;74.60;;;;;;4994954;28;20051;-81
2022/08/23 14:24:02;;;;;;;11.98;6.20;;;32.90;75.90;;;;;;4979617;28;20144;-81
2022/08/23 14:26:48;;;;;;;10.77;5.75;;;32.30;77.10;;;;;;4978070;28;20500;-84
2022/08/23 14:29:35;;;;;;;12.13;7.75;;;31.80;79.00;;;;;;4965053;28;20125;-81
2022/08/23 14:32:21;;;;;;;10.63;7.32;;;31.50;79.60;;;;;;4996050;28;20052;-83
2022/08/23 14:35:08;;;;;;;13.18;6.88;;;31.60;80.40;;;;;;4995386;28;20078;-84
2022/08/23 14:37:54;;;;;;;14.57;7.05;;;32.90;78.90;;;;;;4979144;28;20058;-82
2022/08/23 14:41:02;;;;;;;8.50;6.70;;;34.30;76.40;;;;;;4979730;28;20063;-82
2022/08/23 14:43:49;;;;;;;15.32;7.60;;;35.00;74.60;;;;;;4975732;28;20047;-86
2022/08/23 14:46:35;;;;;;;12.77;6.18;;;35.80;73.60;;;;;;4975700;28;20059;-84
2022/08/23 14:49:21;;;;;;;13.50;6.15;;;36.70;72.20;;;;;;4975301;28;20047;-81
2022/08/23 14:52:08;;;;;;;10.38;6.53;;;37.30;70.70;;;;;;4957838;28;20474;-81
2022/08/23 14:54:54;;;;;;;10.77;6.78;;;37.60;69.20;;;;;;4973244;28;20085;-83